Time;durP1;ratioP1;P1;durP2;ratioP2;P2;SDS_P1;SDS_P2;PMS_P1;PMS_P2;Temp;Humidity;BMP_temperature;BMP_pressure;BME280_temperature;BME280_humidity;BME280_pressure;Samples;Min_cycle;Max_cycle;Signal;HPM_P1;HPM_P2
2021/01/03 00:01:12;;;;;;;11.55;5.40;;;-3274.50;94.80;;;;;;4870531;29;20061;-80
2021/01/03 00:03:48;;;;;;;16.30;7.07;;;-3274.50;94.70;;;;;;4853104;29;20061;-81
2021/01/03 00:06:21;;;;;;;12.13;5.72;;;-3274.50;94.60;;;;;;4852161;29;20116;-81
2021/01/03 00:08:50;;;;;;;17.58;5.40;;;-3274.40;94.60;;;;;;4854470;29;20069;-83
2021/01/03 00:11:17;;;;;;;11.13;5.85;;;-3274.50;94.40;;;;;;4858238;29;20057;-80
2021/01/03 00:13:45;;;;;;;11.50;5.32;;;-3274.40;94.30;;;;;;4854126;29;20085;-80
2021/01/03 00:16:13;;;;;;;14.30;5.88;;;-3274.50;94.70;;;;;;4870595;29;20058;-80
2021/01/03 00:18:39;;;;;;;12.43;5.60;;;-3274.60;94.70;;;;;;4849951;29;20065;-81
2021/01/03 00:21:09;;;;;;;15.35;7.43;;;-3274.60;94.60;;;;;;4838782;29;20273;-80
2021/01/03 00:23:36;;;;;;;17.07;7.23;;;-3274.60;94.60;;;;;;4847976;29;20125;-82
2021/01/03 00:26:04;;;;;;;11.45;4.93;;;-3274.70;94.90;;;;;;4856821;29;20057;-85
2021/01/03 00:28:31;;;;;;;15.02;5.25;;;-3274.90;94.90;;;;;;4852508;29;20072;-82
2021/01/03 00:30:59;;;;;;;17.50;6.97;;;-3275.00;94.60;;;;;;4858519;29;20061;-82
2021/01/03 00:33:27;;;;;;;14.95;5.65;;;-3275.10;94.40;;;;;;4858452;29;20057;-82
2021/01/03 00:35:54;;;;;;;13.23;5.80;;;-3275.30;94.10;;;;;;4874187;29;20059;-82
2021/01/03 00:38:22;;;;;;;16.02;6.63;;;-3275.40;93.50;;;;;;4842806;29;20053;-83
2021/01/03 00:40:49;;;;;;;16.75;5.88;;;-3275.50;93.70;;;;;;4852784;29;20116;-85
2021/01/03 00:43:17;;;;;;;10.65;4.97;;;-3275.60;93.50;;;;;;4841843;29;20069;-82
2021/01/03 00:45:45;;;;;;;14.55;6.10;;;-3275.70;93.00;;;;;;4872434;29;20057;-85
2021/01/03 00:48:12;;;;;;;15.13;5.90;;;-3275.80;92.70;;;;;;4872479;29;20073;-82
2021/01/03 00:50:40;;;;;;;11.00;5.07;;;-3275.80;92.20;;;;;;4857982;29;20049;-84
2021/01/03 00:53:07;;;;;;;12.15;5.30;;;-3275.90;92.00;;;;;;4837943;29;20065;-81
2021/01/03 00:55:34;;;;;;;12.65;6.25;;;-3275.90;92.20;;;;;;4873626;29;20061;-82
2021/01/03 00:58:01;;;;;;;13.93;5.22;;;-3275.90;92.20;;;;;;4858380;29;20057;-85
2021/01/03 01:00:34;;;;;;;7.18;4.10;;;-3275.90;92.40;;;;;;4874796;29;20098;-82
2021/01/03 01:03:03;;;;;;;9.82;4.40;;;-3276.00;92.30;;;;;;4866429;29;20074;-82
2021/01/03 01:05:29;;;;;;;7.28;4.88;;;-3276.00;92.10;;;;;;4835694;29;20054;-83
2021/01/03 01:07:57;;;;;;;10.00;5.00;;;-3276.00;91.80;;;;;;4857994;29;20366;-86
2021/01/03 01:10:26;;;;;;;13.23;4.63;;;-3276.00;92.10;;;;;;4870448;29;20061;-84
2021/01/03 01:12:56;;;;;;;8.10;3.70;;;-3276.10;92.30;;;;;;4873931;29;20065;-85
2021/01/03 01:15:24;;;;;;;10.43;4.88;;;-3276.20;92.50;;;;;;4873547;29;20084;-84
2021/01/03 01:17:53;;;;;;;10.70;4.00;;;-3276.30;92.20;;;;;;4868326;29;20283;-85
2021/01/03 01:20:22;;;;;;;9.02;4.65;;;-3276.30;92.30;;;;;;4869000;29;20081;-82
2021/01/03 01:22:49;;;;;;;7.85;4.95;;;-3276.40;92.20;;;;;;4849826;29;20086;-83
2021/01/03 01:25:20;;;;;;;12.25;4.35;;;-3276.30;91.70;;;;;;4873654;29;20057;-85
2021/01/03 01:27:48;;;;;;;7.85;4.43;;;-3276.30;92.00;;;;;;4873481;29;20057;-84
2021/01/03 01:30:17;;;;;;;13.30;5.30;;;-3276.30;92.20;;;;;;4873239;29;20061;-84
2021/01/03 01:32:44;;;;;;;11.15;5.30;;;-3276.50;91.70;;;;;;4873775;29;20057;-83
2021/01/03 01:35:14;;;;;;;9.52;5.35;;;-3276.40;92.10;;;;;;4857068;29;20037;-83
2021/01/03 01:37:42;;;;;;;9.82;5.43;;;-3276.50;92.10;;;;;;4853233;29;20053;-81
2021/01/03 01:40:12;;;;;;;14.13;6.25;;;-3276.50;91.50;;;;;;4855315;29;20324;-83
2021/01/03 01:42:39;;;;;;;11.70;5.60;;;-3276.50;91.70;;;;;;4857476;29;20057;-82
2021/01/03 01:45:07;;;;;;;14.70;7.32;;;-3276.50;91.60;;;;;;4871166;29;20069;-83
2021/01/03 01:47:38;;;;;;;11.50;4.63;;;-3276.60;92.00;;;;;;4872994;29;20057;-82
2021/01/03 01:50:10;;;;;;;10.80;5.57;;;-3276.40;91.30;;;;;;4873223;29;20065;-84
2021/01/03 01:52:43;;;;;;;13.60;5.65;;;-3276.40;91.80;;;;;;4842068;29;20114;-82
2021/01/03 01:55:16;;;;;;;13.98;5.25;;;-3276.50;91.70;;;;;;4871261;29;20404;-83
2021/01/03 01:57:47;;;;;;;11.30;5.80;;;-3276.50;91.70;;;;;;4853587;29;20072;-81
2021/01/03 02:00:16;;;;;;;;;;;-3276.60;91.60;;;;;;4872482;29;20340;-83
2021/01/03 02:02:49;;;;;;;10.35;5.35;;;-3276.60;91.40;;;;;;4870920;29;19927;-84
2021/01/03 02:05:22;;;;;;;10.23;4.47;;;-3276.50;91.10;;;;;;4855584;29;20376;-84
2021/01/03 02:07:55;;;;;;;13.77;6.28;;;-3276.50;91.70;;;;;;4872997;29;20061;-81
2021/01/03 02:10:26;;;;;;;16.23;6.35;;;-3276.60;91.60;;;;;;4871976;29;20217;-81
2021/01/03 02:13:06;;;;;;;12.95;5.38;;;-3276.50;91.40;;;;;;4872787;29;20074;-83
2021/01/03 02:15:35;;;;;;;10.63;4.88;;;-3276.60;91.70;;;;;;4855992;29;20053;-82
2021/01/03 02:18:05;;;;;;;12.07;6.00;;;-3276.60;91.00;;;;;;4855580;29;20061;-82
2021/01/03 02:20:38;;;;;;;11.25;4.82;;;-3276.60;91.10;;;;;;4855984;29;20060;-83
2021/01/03 02:23:08;;;;;;;14.18;5.40;;;-3276.60;91.40;;;;;;4871374;29;20101;-82
2021/01/03 02:25:36;;;;;;;9.73;5.85;;;-3276.70;91.00;;;;;;4868029;29;20411;-80
2021/01/03 02:28:20;;;;;;;7.32;4.03;;;-3276.60;91.10;;;;;;4854308;29;20376;-82
2021/01/03 02:30:50;;;;;;;14.88;6.85;;;-3276.60;91.40;;;;;;4855666;29;20058;-82
2021/01/03 02:33:21;;;;;;;10.47;4.90;;;-3276.70;91.30;;;;;;4853098;29;20057;-81
2021/01/03 02:35:50;;;;;;;9.95;4.35;;;-3276.70;91.20;;;;;;4864363;29;20061;-80
2021/01/03 02:38:22;;;;;;;9.90;4.57;;;-3276.60;91.20;;;;;;4871980;29;20137;-82
2021/01/03 02:40:50;;;;;;;11.32;5.03;;;-3276.60;91.40;;;;;;4855806;29;20049;-82
2021/01/03 02:43:17;;;;;;;13.02;5.00;;;-3276.70;91.20;;;;;;4868344;29;20367;-83
2021/01/03 02:45:44;;;;;;;9.68;4.40;;;-3276.60;90.80;;;;;;4840301;29;20094;-83
2021/01/03 02:48:18;;;;;;;9.30;4.65;;;-3276.60;91.40;;;;;;4842745;29;20070;-80
2021/01/03 02:50:46;;;;;;;14.13;4.50;;;-3276.60;91.10;;;;;;4840249;29;20049;-82
2021/01/03 02:53:14;;;;;;;12.13;6.05;;;-3276.60;90.90;;;;;;4872170;29;20125;-84
2021/01/03 02:55:40;;;;;;;11.80;5.63;;;-3276.60;91.00;;;;;;4862046;29;20060;-81
2021/01/03 02:58:08;;;;;;;12.45;5.53;;;-3276.70;91.10;;;;;;4861375;29;20257;-81
2021/01/03 03:00:38;;;;;;;11.25;4.72;;;-3276.70;90.80;;;;;;4854892;29;20049;-84
2021/01/03 03:03:06;;;;;;;8.00;3.90;;;-3276.70;90.80;;;;;;4855070;29;20073;-81
2021/01/03 03:05:33;;;;;;;9.30;4.72;;;-3276.70;90.90;;;;;;4855065;29;20089;-81
2021/01/03 03:08:00;;;;;;;11.05;4.68;;;0.00;91.00;;;;;;4870766;29;20069;-84
2021/01/03 03:10:30;;;;;;;8.73;4.20;;;0.00;90.20;;;;;;4850417;29;20057;-84
2021/01/03 03:12:59;;;;;;;9.93;3.72;;;0.00;90.20;;;;;;4859288;29;20077;-84
2021/01/03 03:15:31;;;;;;;7.35;4.47;;;0.00;90.30;;;;;;4872145;29;20057;-85
2021/01/03 03:18:00;;;;;;;14.98;5.78;;;0.00;90.40;;;;;;4886836;29;20056;-80
2021/01/03 03:20:28;;;;;;;9.95;4.30;;;0.00;91.00;;;;;;4889150;29;20108;-82
2021/01/03 03:22:55;;;;;;;9.35;5.05;;;0.00;90.40;;;;;;4890396;29;20079;-84
2021/01/03 03:25:23;;;;;;;9.25;4.30;;;0.00;90.10;;;;;;4890437;29;20065;-83
2021/01/03 03:27:50;;;;;;;10.05;5.10;;;0.00;90.30;;;;;;4881161;29;20065;-83
2021/01/03 03:30:19;;;;;;;10.95;5.65;;;0.00;90.20;;;;;;4889724;29;20100;-83
2021/01/03 03:32:52;;;;;;;12.77;5.03;;;0.00;90.50;;;;;;4873491;29;20248;-82
2021/01/03 03:35:23;;;;;;;11.43;4.72;;;0.00;90.40;;;;;;4872876;29;20127;-83
2021/01/03 03:37:49;;;;;;;;;;;0.00;90.50;;;;;;4887883;29;20067;-82
2021/01/03 03:40:17;;;;;;;9.50;4.65;;;0.00;90.60;;;;;;4872967;29;19920;-84
2021/01/03 03:42:44;;;;;;;9.35;4.07;;;0.10;90.50;;;;;;4889362;29;20329;-80
2021/01/03 03:45:13;;;;;;;10.48;4.75;;;0.10;90.20;;;;;;4873107;29;20068;-83
2021/01/03 03:47:41;;;;;;;8.73;4.70;;;0.20;90.60;;;;;;4873070;29;20060;-80
2021/01/03 03:50:14;;;;;;;12.77;4.18;;;0.20;90.40;;;;;;4888384;29;20100;-82
2021/01/03 03:52:43;;;;;;;9.85;5.22;;;0.20;90.40;;;;;;4889604;29;20068;-82
2021/01/03 03:55:11;;;;;;;8.75;4.70;;;0.20;90.30;;;;;;4882537;29;20086;-80
2021/01/03 03:57:38;;;;;;;10.23;4.85;;;0.10;90.30;;;;;;4857721;29;20278;-84
2021/01/03 04:00:07;;;;;;;9.35;4.18;;;0.10;90.60;;;;;;4858593;29;20391;-81
2021/01/03 04:02:41;;;;;;;8.30;4.07;;;0.30;90.20;;;;;;4884682;29;20109;-83
2021/01/03 04:05:13;;;;;;;10.57;4.78;;;0.40;89.70;;;;;;4892794;29;20061;-84
2021/01/03 04:07:41;;;;;;;11.70;4.05;;;0.10;89.60;;;;;;4887318;29;20072;-83
2021/01/03 04:10:09;;;;;;;10.43;6.35;;;0.00;90.80;;;;;;4860124;29;20064;-80
2021/01/03 04:12:36;;;;;;;12.82;4.63;;;0.10;90.50;;;;;;4879553;29;20217;-81
2021/01/03 04:15:05;;;;;;;12.32;5.50;;;0.00;90.70;;;;;;4893626;29;20064;-81
2021/01/03 04:17:33;;;;;;;10.77;5.18;;;0.00;90.70;;;;;;4892220;29;20056;-82
2021/01/03 04:20:00;;;;;;;7.80;4.28;;;0.10;90.70;;;;;;4892181;29;20089;-82
2021/01/03 04:22:30;;;;;;;10.13;4.80;;;0.10;90.60;;;;;;4892161;29;20052;-83
2021/01/03 04:24:57;;;;;;;10.77;4.88;;;0.10;90.60;;;;;;4881344;29;20055;-84
2021/01/03 04:27:24;;;;;;;7.70;4.32;;;0.10;90.60;;;;;;4891988;29;20344;-84
2021/01/03 04:29:53;;;;;;;12.32;5.93;;;0.20;90.40;;;;;;4895473;29;20109;-82
2021/01/03 04:32:20;;;;;;;7.60;4.13;;;0.20;90.90;;;;;;4907548;29;20067;-81
2021/01/03 04:34:47;;;;;;;11.27;4.82;;;0.30;90.30;;;;;;4893041;29;20061;-82
2021/01/03 04:37:19;;;;;;;7.30;3.97;;;0.20;90.50;;;;;;4907222;29;20048;-81
2021/01/03 04:39:47;;;;;;;9.95;5.25;;;0.10;91.00;;;;;;4893036;29;20056;-80
2021/01/03 04:42:18;;;;;;;12.98;5.28;;;0.20;90.80;;;;;;4892558;29;20060;-84
2021/01/03 04:44:47;;;;;;;9.40;4.88;;;0.20;90.80;;;;;;4888229;29;20070;-83
2021/01/03 04:47:24;;;;;;;10.48;4.03;;;0.20;90.90;;;;;;4888632;29;20053;-82
2021/01/03 04:49:59;;;;;;;8.75;4.35;;;0.30;90.90;;;;;;4892383;29;20069;-81
2021/01/03 04:53:04;;;;;;;12.07;5.47;;;0.20;90.80;;;;;;4891452;29;20049;-81
2021/01/03 04:55:34;;;;;;;12.70;5.70;;;0.20;90.80;;;;;;4874794;29;20336;-80
2021/01/03 04:58:11;;;;;;;14.20;6.38;;;0.20;91.00;;;;;;4890836;29;20081;-81
2021/01/03 05:00:44;;;;;;;12.18;5.25;;;0.20;91.00;;;;;;4880816;29;20049;-82
2021/01/03 05:03:41;;;;;;;11.65;5.05;;;0.30;90.90;;;;;;4889400;29;20053;-79
2021/01/03 05:06:14;;;;;;;12.38;4.88;;;0.40;90.60;;;;;;4875507;29;20041;-82
2021/01/03 05:08:44;;;;;;;10.75;4.97;;;0.40;90.60;;;;;;4880602;29;20049;-80
2021/01/03 05:11:15;;;;;;;10.10;5.20;;;0.40;90.70;;;;;;4890294;29;20122;-83
2021/01/03 05:13:54;;;;;;;9.73;5.10;;;0.50;90.50;;;;;;4877930;29;20298;-81
2021/01/03 05:16:22;;;;;;;7.85;3.83;;;0.40;90.30;;;;;;4847798;29;20117;-80
2021/01/03 05:18:49;;;;;;;11.00;4.90;;;0.50;90.40;;;;;;4864835;29;20061;-82
2021/01/03 05:21:16;;;;;;;9.57;4.28;;;0.50;90.10;;;;;;4861944;29;20053;-81
2021/01/03 05:23:58;;;;;;;10.60;5.45;;;0.50;90.30;;;;;;4841900;29;20265;-82
2021/01/03 05:26:32;;;;;;;9.52;4.63;;;0.60;90.30;;;;;;4871848;29;20057;-83
2021/01/03 05:29:00;;;;;;;10.73;4.40;;;0.70;90.40;;;;;;4852338;29;20067;-82
2021/01/03 05:31:29;;;;;;;10.65;5.53;;;0.60;89.70;;;;;;4873587;29;20061;-82
2021/01/03 05:33:59;;;;;;;9.82;5.18;;;0.60;90.40;;;;;;4855769;29;20105;-81
2021/01/03 05:36:34;;;;;;;8.75;4.57;;;0.60;90.30;;;;;;4868145;29;20218;-84
2021/01/03 05:39:05;;;;;;;11.20;4.82;;;0.50;90.50;;;;;;4841883;29;20065;-83
2021/01/03 05:41:52;;;;;;;10.98;4.95;;;0.60;90.10;;;;;;4872504;29;20061;-81
2021/01/03 05:44:25;;;;;;;8.13;4.30;;;0.70;90.30;;;;;;4872769;29;20132;-80
2021/01/03 05:47:01;;;;;;;10.73;5.60;;;0.70;90.00;;;;;;4856646;29;20370;-81
2021/01/03 05:49:30;;;;;;;11.52;4.78;;;0.70;90.40;;;;;;4857266;29;20077;-81
2021/01/03 05:52:07;;;;;;;8.68;4.18;;;0.70;90.50;;;;;;4844185;29;20102;-83
2021/01/03 05:54:36;;;;;;;9.63;4.20;;;0.80;90.20;;;;;;4855424;29;20046;-84
2021/01/03 05:57:06;;;;;;;11.87;4.33;;;0.80;90.40;;;;;;4870683;29;20071;-81
2021/01/03 05:59:36;;;;;;;9.63;4.95;;;0.80;89.90;;;;;;4874655;29;20064;-80
2021/01/03 06:02:10;;;;;;;15.60;5.93;;;0.90;90.10;;;;;;4875167;29;20098;-81
2021/01/03 06:04:38;;;;;;;9.07;3.92;;;1.00;89.60;;;;;;4873932;29;20060;-82
2021/01/03 06:07:17;;;;;;;8.52;4.13;;;1.10;89.20;;;;;;4856024;29;20058;-82
2021/01/03 06:09:45;;;;;;;8.02;4.28;;;1.10;89.30;;;;;;4846474;29;20049;-83
2021/01/03 06:12:18;;;;;;;9.20;4.28;;;1.00;89.20;;;;;;4856161;29;20308;-80
2021/01/03 06:14:50;;;;;;;8.88;4.20;;;0.90;90.00;;;;;;4868171;29;20049;-82
2021/01/03 06:17:33;;;;;;;8.75;4.95;;;0.80;90.60;;;;;;4872972;29;20061;-82
2021/01/03 06:20:08;;;;;;;10.30;5.07;;;0.80;90.50;;;;;;4850332;29;20207;-80
2021/01/03 06:22:45;;;;;;;10.35;4.93;;;1.00;90.40;;;;;;4873009;29;20253;-84
2021/01/03 06:25:24;;;;;;;10.75;5.03;;;1.00;89.90;;;;;;4872105;29;20061;-81
2021/01/03 06:27:52;;;;;;;10.48;4.88;;;0.80;90.40;;;;;;4850396;29;20061;-81
2021/01/03 06:30:22;;;;;;;9.73;5.03;;;0.80;90.30;;;;;;4868090;29;20057;-83
2021/01/03 06:33:18;;;;;;;8.82;4.35;;;0.80;90.30;;;;;;4871027;29;20101;-83
2021/01/03 06:35:49;;;;;;;9.32;4.22;;;0.90;90.80;;;;;;4851357;29;20076;-83
2021/01/03 06:38:34;;;;;;;9.88;4.45;;;1.00;89.90;;;;;;4860107;29;20056;-80
2021/01/03 06:41:13;;;;;;;7.63;4.85;;;0.80;90.00;;;;;;4865354;29;20053;-81
2021/01/03 06:44:06;;;;;;;7.57;4.10;;;0.70;90.30;;;;;;4867300;29;20060;-81
2021/01/03 06:47:02;;;;;;;9.82;5.00;;;0.80;90.40;;;;;;4882931;29;20077;-83
2021/01/03 06:49:47;;;;;;;11.52;5.57;;;0.70;90.70;;;;;;4860924;29;20061;-81
2021/01/03 06:52:37;;;;;;;9.23;4.97;;;0.70;90.80;;;;;;4862890;29;20253;-80
2021/01/03 06:55:46;;;;;;;12.63;5.20;;;0.70;90.50;;;;;;4854285;29;20066;-82
2021/01/03 06:58:42;;;;;;;8.45;4.30;;;0.70;90.90;;;;;;4797055;30;20062;-83
2021/01/03 07:01:18;;;;;;;8.70;4.47;;;0.70;90.60;;;;;;4856169;29;20084;-81
2021/01/03 07:03:50;;;;;;;8.88;4.88;;;0.70;90.80;;;;;;4849330;29;20061;-84
2021/01/03 07:06:18;;;;;;;9.30;5.50;;;0.80;90.90;;;;;;4870045;29;20080;-80
2021/01/03 07:08:49;;;;;;;10.90;4.30;;;0.80;90.20;;;;;;4855988;29;20061;-80
2021/01/03 07:11:46;;;;;;;9.75;5.43;;;0.80;90.60;;;;;;4855328;29;20056;-82
2021/01/03 07:14:48;;;;;;;11.65;4.95;;;0.90;90.30;;;;;;4888649;29;20056;-82
2021/01/03 07:17:17;;;;;;;11.35;4.53;;;0.90;90.20;;;;;;4887344;29;20244;-83
2021/01/03 07:19:51;;;;;;;6.70;3.63;;;0.90;90.50;;;;;;4891062;29;20052;-85
2021/01/03 07:22:23;;;;;;;11.90;4.78;;;0.90;90.60;;;;;;4883079;29;20068;-84
2021/01/03 07:25:22;;;;;;;13.65;5.80;;;1.10;90.30;;;;;;4899874;29;20061;-84
2021/01/03 07:28:13;;;;;;;10.35;4.70;;;1.00;90.40;;;;;;4830570;29;20334;-82
2021/01/03 07:31:01;;;;;;;12.98;5.65;;;1.10;90.40;;;;;;4864988;29;20340;-80
2021/01/03 07:33:41;;;;;;;7.85;3.58;;;1.10;89.80;;;;;;4896473;29;20128;-83
2021/01/03 07:36:37;;;;;;;11.93;4.18;;;1.00;89.70;;;;;;4891964;29;20053;-81
2021/01/03 07:39:10;;;;;;;12.88;6.10;;;1.00;89.80;;;;;;4903057;29;20064;-81
2021/01/03 07:41:38;;;;;;;15.13;6.90;;;1.00;90.10;;;;;;4886092;29;20056;-82
2021/01/03 07:44:08;;;;;;;18.65;6.32;;;1.00;90.40;;;;;;4894282;29;20403;-83
2021/01/03 07:46:45;;;;;;;11.57;5.05;;;0.90;90.30;;;;;;4887904;29;20085;-81
2021/01/03 07:49:41;;;;;;;12.48;5.80;;;0.90;90.70;;;;;;4904695;29;20053;-81
2021/01/03 07:52:40;;;;;;;11.32;4.72;;;0.90;91.00;;;;;;4903217;29;20102;-82
2021/01/03 07:55:25;;;;;;;10.77;5.78;;;1.00;90.30;;;;;;4900792;29;20248;-83
2021/01/03 07:57:54;;;;;;;10.45;5.82;;;1.10;90.20;;;;;;4896946;29;20218;-80
2021/01/03 08:00:28;;;;;;;12.65;5.43;;;1.20;90.20;;;;;;4897128;29;20356;-83
2021/01/03 08:03:04;;;;;;;9.60;5.45;;;1.00;90.20;;;;;;4893914;29;20558;-84
2021/01/03 08:05:32;;;;;;;7.07;4.38;;;1.10;89.90;;;;;;4901753;29;20050;-82
2021/01/03 08:08:05;;;;;;;13.98;5.70;;;1.00;90.30;;;;;;4888206;29;20069;-82
2021/01/03 08:10:32;;;;;;;10.38;5.30;;;1.00;90.30;;;;;;4881812;29;20082;-83
2021/01/03 08:13:06;;;;;;;12.20;5.85;;;1.00;90.70;;;;;;4884010;29;20072;-82
2021/01/03 08:15:34;;;;;;;12.77;5.38;;;0.90;90.70;;;;;;4848679;29;20052;-84
2021/01/03 08:18:04;;;;;;;12.55;5.90;;;0.80;91.30;;;;;;4873451;29;20057;-82
2021/01/03 08:20:33;;;;;;;10.98;5.80;;;1.10;90.90;;;;;;4855455;29;20078;-80
2021/01/03 08:23:23;;;;;;;14.25;5.72;;;1.00;91.20;;;;;;4858106;29;20321;-80
2021/01/03 08:26:02;;;;;;;14.57;6.63;;;0.90;90.90;;;;;;4853102;29;20064;-82
2021/01/03 08:28:32;;;;;;;11.02;4.30;;;1.00;91.10;;;;;;4842837;29;20355;-83
2021/01/03 08:31:01;;;;;;;17.15;6.45;;;1.10;91.10;;;;;;4858951;29;20058;-82
2021/01/03 08:33:33;;;;;;;12.27;6.60;;;1.20;91.10;;;;;;4875236;29;20057;-81
2021/01/03 08:36:15;;;;;;;10.15;6.03;;;1.30;90.70;;;;;;4858464;29;20232;-80
2021/01/03 08:38:42;;;;;;;10.20;5.03;;;1.40;90.50;;;;;;4870510;29;20102;-79
2021/01/03 08:41:16;;;;;;;12.88;5.63;;;1.50;89.60;;;;;;4857235;29;20062;-80
2021/01/03 08:43:43;;;;;;;10.07;5.03;;;1.70;90.10;;;;;;4858420;29;20058;-80
2021/01/03 08:46:11;;;;;;;10.27;5.88;;;1.80;89.20;;;;;;4873759;29;20113;-81
2021/01/03 08:48:39;;;;;;;17.08;6.63;;;1.80;89.00;;;;;;4859220;29;20344;-82
2021/01/03 08:51:11;;;;;;;15.85;7.43;;;1.80;89.40;;;;;;4858139;29;20060;-81
2021/01/03 08:53:40;;;;;;;17.05;8.15;;;1.90;89.30;;;;;;4857590;29;20061;-81
2021/01/03 08:56:14;;;;;;;17.02;7.28;;;2.00;89.20;;;;;;4869204;29;20049;-82
2021/01/03 08:58:42;;;;;;;15.40;7.45;;;2.20;88.90;;;;;;4873181;29;20067;-79
2021/01/03 09:01:19;;;;;;;11.75;5.82;;;2.20;88.80;;;;;;4850744;29;20073;-80
2021/01/03 09:03:49;;;;;;;12.32;6.57;;;2.00;89.50;;;;;;4866974;29;20057;-81
2021/01/03 09:06:18;;;;;;;14.43;6.65;;;2.00;90.00;;;;;;4857751;29;20053;-81
2021/01/03 09:08:47;;;;;;;19.10;8.27;;;2.00;90.50;;;;;;4876890;29;20065;-81
2021/01/03 09:11:22;;;;;;;14.40;6.65;;;2.20;89.80;;;;;;4874126;29;20053;-82
2021/01/03 09:13:52;;;;;;;12.32;6.30;;;2.20;90.20;;;;;;4856656;29;20110;-80
2021/01/03 09:16:26;;;;;;;9.82;4.82;;;2.20;90.10;;;;;;4877393;29;20132;-81
2021/01/03 09:19:05;;;;;;;12.38;5.80;;;2.20;90.20;;;;;;4874518;29;20058;-81
2021/01/03 09:21:32;;;;;;;11.93;5.40;;;2.40;90.20;;;;;;4854179;29;20049;-80
2021/01/03 09:24:03;;;;;;;10.27;4.82;;;2.40;89.90;;;;;;4862720;29;20067;-81
2021/01/03 09:26:36;;;;;;;7.88;3.55;;;2.40;90.00;;;;;;4860340;29;20053;-82
2021/01/03 09:29:09;;;;;;;7.13;3.35;;;2.50;90.40;;;;;;4876167;29;20061;-81
2021/01/03 09:31:40;;;;;;;10.50;4.00;;;2.60;89.70;;;;;;4859202;29;20081;-82
2021/01/03 09:34:13;;;;;;;8.55;4.15;;;2.70;89.60;;;;;;4848250;29;20113;-80
2021/01/03 09:36:49;;;;;;;10.25;4.25;;;2.70;89.50;;;;;;4860309;29;20131;-81
2021/01/03 09:39:52;;;;;;;7.82;4.00;;;2.60;89.20;;;;;;4843537;29;20061;-81
2021/01/03 09:42:48;;;;;;;7.70;3.65;;;2.80;88.90;;;;;;4872150;29;20076;-81
2021/01/03 09:45:31;;;;;;;6.15;2.83;;;2.90;88.50;;;;;;4863856;29;20060;-81
2021/01/03 09:47:58;;;;;;;6.15;3.03;;;2.90;88.10;;;;;;4844088;29;20049;-80
2021/01/03 09:50:32;;;;;;;7.03;3.63;;;2.90;87.60;;;;;;4875042;29;20076;-81
2021/01/03 09:53:22;;;;;;;9.02;3.63;;;2.90;87.60;;;;;;4860660;29;20055;-80
2021/01/03 09:55:54;;;;;;;4.60;2.60;;;2.80;87.40;;;;;;4845351;29;20075;-82
2021/01/03 09:58:34;;;;;;;5.43;3.05;;;2.90;87.30;;;;;;4840959;29;20050;-80
2021/01/03 10:01:04;;;;;;;4.55;1.83;;;2.80;87.30;;;;;;4853841;29;20058;-81
2021/01/03 10:03:39;;;;;;;4.85;1.92;;;2.80;87.10;;;;;;4857755;29;20065;-84
2021/01/03 10:06:15;;;;;;;4.47;1.77;;;2.90;86.80;;;;;;4855262;29;20061;-83
2021/01/03 10:08:43;;;;;;;4.10;1.85;;;3.00;86.90;;;;;;4867234;29;20053;-80
2021/01/03 10:11:10;;;;;;;5.05;1.52;;;3.00;86.90;;;;;;4856774;29;20053;-79
2021/01/03 10:13:38;;;;;;;3.88;2.00;;;3.00;86.80;;;;;;4858161;29;20057;-82
2021/01/03 10:16:20;;;;;;;3.85;1.73;;;3.00;86.80;;;;;;4853588;29;20058;-80
2021/01/03 10:18:47;;;;;;;2.92;1.58;;;3.00;85.80;;;;;;4855957;29;20076;-80
2021/01/03 10:21:21;;;;;;;5.25;1.92;;;3.00;85.40;;;;;;4871371;29;20072;-82
2021/01/03 10:23:56;;;;;;;3.55;1.63;;;2.90;85.20;;;;;;4856150;29;20065;-80
2021/01/03 10:26:26;;;;;;;3.95;1.63;;;2.90;85.60;;;;;;4869583;29;20048;-79
2021/01/03 10:28:54;;;;;;;4.55;1.90;;;3.00;85.40;;;;;;4872587;29;20353;-80
2021/01/03 10:31:22;;;;;;;4.38;2.13;;;3.10;85.30;;;;;;4842182;29;20053;-82
2021/01/03 10:33:50;;;;;;;5.50;2.30;;;3.10;85.20;;;;;;4856882;29;20104;-83
2021/01/03 10:36:18;;;;;;;5.95;2.35;;;3.10;85.10;;;;;;4870975;29;20124;-81
2021/01/03 10:38:46;;;;;;;4.43;2.50;;;3.10;84.40;;;;;;4867843;29;20065;-80
2021/01/03 10:41:14;;;;;;;4.40;1.92;;;3.10;84.80;;;;;;4855951;29;20060;-81
2021/01/03 10:43:43;;;;;;;5.20;1.65;;;3.10;84.50;;;;;;4853205;29;20249;-80
2021/01/03 10:46:12;;;;;;;4.63;1.67;;;3.10;84.10;;;;;;4873276;29;20361;-81
2021/01/03 10:48:39;;;;;;;5.63;1.83;;;3.20;84.10;;;;;;4873153;29;20424;-84
2021/01/03 10:51:06;;;;;;;4.80;2.17;;;3.10;84.00;;;;;;4854954;29;20345;-82
2021/01/03 10:53:33;;;;;;;4.60;2.22;;;3.10;84.20;;;;;;4873408;29;20069;-82
2021/01/03 10:56:00;;;;;;;6.18;3.13;;;3.10;84.20;;;;;;4868427;29;20061;-81
2021/01/03 10:58:28;;;;;;;3.55;1.88;;;3.10;83.80;;;;;;4872518;29;20053;-82
2021/01/03 11:00:55;;;;;;;4.60;2.38;;;3.10;83.90;;;;;;4871666;29;20072;-80
2021/01/03 11:03:22;;;;;;;4.82;1.98;;;3.10;83.80;;;;;;4861550;29;20092;-80
2021/01/03 11:05:50;;;;;;;5.50;2.05;;;3.20;83.90;;;;;;4870780;29;20061;-80
2021/01/03 11:08:16;;;;;;;4.43;2.00;;;3.20;83.80;;;;;;4869375;29;20049;-82
2021/01/03 11:10:45;;;;;;;2.22;1.27;;;3.10;83.80;;;;;;4859828;29;20178;-82
2021/01/03 11:13:12;;;;;;;3.08;2.00;;;3.20;83.50;;;;;;4857032;29;20261;-82
2021/01/03 11:15:39;;;;;;;4.85;2.03;;;3.20;83.30;;;;;;4871781;29;20057;-80
2021/01/03 11:18:06;;;;;;;3.78;1.63;;;3.10;83.50;;;;;;4850355;29;20053;-81
2021/01/03 11:20:35;;;;;;;4.65;1.73;;;3.10;83.60;;;;;;4875034;29;20045;-80
2021/01/03 11:23:02;;;;;;;5.55;2.17;;;3.10;83.80;;;;;;4872967;29;20349;-83
2021/01/03 11:25:30;;;;;;;3.25;1.70;;;3.10;84.00;;;;;;4868416;29;20065;-80
2021/01/03 11:27:57;;;;;;;5.35;1.63;;;3.10;83.20;;;;;;4855658;29;20214;-80
2021/01/03 11:30:24;;;;;;;3.78;1.67;;;3.30;82.90;;;;;;4870309;29;20135;-81
2021/01/03 11:32:51;;;;;;;4.70;2.28;;;3.20;83.10;;;;;;4855762;29;20057;-80
2021/01/03 11:35:18;;;;;;;5.70;2.25;;;3.20;83.30;;;;;;4854261;29;20069;-81
2021/01/03 11:37:48;;;;;;;3.97;1.50;;;3.30;83.00;;;;;;4853333;29;20057;-80
2021/01/03 11:40:17;;;;;;;4.13;1.93;;;3.30;83.10;;;;;;4854523;29;20082;-82
2021/01/03 11:42:43;;;;;;;5.75;1.55;;;3.30;82.70;;;;;;4840830;29;20049;-80
2021/01/03 11:45:14;;;;;;;3.65;2.20;;;3.40;82.80;;;;;;4853819;29;20057;-82
2021/01/03 11:47:41;;;;;;;3.13;1.83;;;3.30;83.10;;;;;;4860369;29;20132;-81
2021/01/03 11:50:11;;;;;;;4.78;1.73;;;3.30;83.30;;;;;;4854696;29;20061;-80
2021/01/03 11:52:38;;;;;;;4.45;1.63;;;3.30;82.60;;;;;;4870624;29;20123;-82
2021/01/03 11:55:09;;;;;;;4.03;2.13;;;3.40;83.00;;;;;;4870464;29;20065;-82
2021/01/03 11:57:36;;;;;;;3.70;1.90;;;3.30;83.30;;;;;;4870978;29;20333;-81
2021/01/03 12:00:05;;;;;;;4.25;2.15;;;3.40;82.60;;;;;;4854388;29;20133;-81
2021/01/03 12:02:39;;;;;;;5.88;2.15;;;3.40;82.50;;;;;;4857046;29;20056;-82
2021/01/03 12:05:08;;;;;;;3.30;1.48;;;3.40;82.50;;;;;;4837835;29;20053;-79
2021/01/03 12:07:35;;;;;;;2.30;1.40;;;3.40;82.60;;;;;;4851074;29;20053;-81
2021/01/03 12:10:03;;;;;;;3.47;1.92;;;3.50;82.20;;;;;;4868922;29;20109;-82
2021/01/03 12:12:31;;;;;;;2.58;1.55;;;3.40;81.70;;;;;;4875698;29;20076;-80
2021/01/03 12:14:58;;;;;;;3.83;1.48;;;3.50;81.90;;;;;;4873345;29;20340;-80
2021/01/03 12:17:25;;;;;;;4.28;2.47;;;3.40;81.40;;;;;;4871463;29;20069;-82
2021/01/03 12:19:53;;;;;;;6.68;2.25;;;3.40;82.10;;;;;;4871434;29;20257;-80
2021/01/03 12:22:20;;;;;;;6.13;1.98;;;3.30;82.20;;;;;;4873621;29;20045;-82
2021/01/03 12:24:47;;;;;;;5.80;2.10;;;3.40;82.00;;;;;;4872842;29;20061;-84
2021/01/03 12:27:18;;;;;;;4.80;1.80;;;3.40;82.40;;;;;;4874306;29;20086;-81
2021/01/03 12:29:46;;;;;;;;;;;3.40;83.20;;;;;;4873636;29;20053;-80
2021/01/03 12:32:14;;;;;;;2.60;1.48;;;3.60;82.80;;;;;;4874058;29;19940;-81
2021/01/03 12:34:42;;;;;;;3.53;1.92;;;3.60;82.90;;;;;;4854314;29;20049;-80
2021/01/03 12:37:10;;;;;;;4.38;1.83;;;3.50;83.30;;;;;;4867293;29;20057;-81
2021/01/03 12:39:40;;;;;;;3.88;1.77;;;3.50;82.70;;;;;;4874601;29;20120;-80
2021/01/03 12:42:09;;;;;;;3.00;1.60;;;3.60;83.20;;;;;;4862849;29;20053;-81
2021/01/03 12:44:38;;;;;;;3.80;1.95;;;3.50;83.30;;;;;;4841999;29;20486;-80
2021/01/03 12:47:09;;;;;;;4.15;2.10;;;3.60;83.40;;;;;;4873409;29;20056;-82
2021/01/03 12:49:35;;;;;;;;;;;3.60;83.60;;;;;;4863829;29;20053;-82
2021/01/03 12:52:04;;;;;;;4.30;2.05;;;3.60;83.60;;;;;;4873553;29;19920;-80
2021/01/03 12:54:32;;;;;;;4.10;2.22;;;3.70;83.10;;;;;;4870961;29;20058;-82
2021/01/03 12:56:59;;;;;;;4.68;2.60;;;3.70;83.20;;;;;;4864237;29;20089;-80
2021/01/03 12:59:28;;;;;;;4.20;1.98;;;3.50;83.80;;;;;;4879954;29;20065;-80
2021/01/03 13:01:55;;;;;;;6.05;2.42;;;3.50;83.80;;;;;;4852524;29;20054;-81
2021/01/03 13:04:22;;;;;;;3.80;1.88;;;3.40;85.10;;;;;;4859757;29;20101;-81
2021/01/03 13:06:49;;;;;;;5.13;2.28;;;3.30;85.50;;;;;;4858898;29;20244;-81